sensor_id;sensor_type;location;lat;lon;timestamp;temperature;humidity
13496;DHT22;6820;49.374;8.452;2023-05-27T00:03:44;17.36;99.99
13496;DHT22;6820;49.374;8.452;2023-05-27T00:07:46;17.33;99.99
13496;DHT22;6820;49.374;8.452;2023-05-27T00:11:48;17.21;99.99
13496;DHT22;6820;49.374;8.452;2023-05-27T00:15:50;17.17;99.99
13496;DHT22;6820;49.374;8.452;2023-05-27T00:19:52;17.07;99.99
13496;DHT22;6820;49.374;8.452;2023-05-27T00:23:55;17.05;99.99
13496;DHT22;6820;49.374;8.452;2023-05-27T00:27:59;17.03;99.99
13496;DHT22;6820;49.374;8.452;2023-05-27T00:32:02;17.06;99.99
13496;DHT22;6820;49.374;8.452;2023-05-27T00:36:05;16.98;99.99
13496;DHT22;6820;49.374;8.452;2023-05-27T00:40:08;16.91;99.99
13496;DHT22;6820;49.374;8.452;2023-05-27T00:44:11;16.81;99.99
13496;DHT22;6820;49.374;8.452;2023-05-27T00:48:13;16.73;99.99
13496;DHT22;6820;49.374;8.452;2023-05-27T00:52:15;16.60;99.99
13496;DHT22;6820;49.374;8.452;2023-05-27T00:56:17;16.50;99.99
13496;DHT22;6820;49.374;8.452;2023-05-27T01:00:19;16.52;99.99
13496;DHT22;6820;49.374;8.452;2023-05-27T01:04:20;16.36;99.99
13496;DHT22;6820;49.374;8.452;2023-05-27T01:16:54;16.29;99.99
13496;DHT22;6820;49.374;8.452;2023-05-27T01:20:59;16.29;99.99
13496;DHT22;6820;49.374;8.452;2023-05-27T01:25:07;16.11;99.99
13496;DHT22;6820;49.374;8.452;2023-05-27T01:29:12;16.06;99.99
13496;DHT22;6820;49.374;8.452;2023-05-27T01:33:20;15.99;99.99
13496;DHT22;6820;49.374;8.452;2023-05-27T01:37:29;15.96;99.99
13496;DHT22;6820;49.374;8.452;2023-05-27T01:41:35;15.85;99.99
13496;DHT22;6820;49.374;8.452;2023-05-27T01:45:37;15.73;99.99
13496;DHT22;6820;49.374;8.452;2023-05-27T01:49:39;15.70;99.99
13496;DHT22;6820;49.374;8.452;2023-05-27T01:53:40;15.66;99.99
13496;DHT22;6820;49.374;8.452;2023-05-27T01:57:43;15.58;99.99
13496;DHT22;6820;49.374;8.452;2023-05-27T02:01:45;15.56;99.99
13496;DHT22;6820;49.374;8.452;2023-05-27T02:05:48;15.52;99.99
13496;DHT22;6820;49.374;8.452;2023-05-27T02:09:51;15.49;99.99
13496;DHT22;6820;49.374;8.452;2023-05-27T02:13:53;15.43;99.99
13496;DHT22;6820;49.374;8.452;2023-05-27T02:17:55;15.46;99.99
13496;DHT22;6820;49.374;8.452;2023-05-27T02:21:57;15.40;99.99
13496;DHT22;6820;49.374;8.452;2023-05-27T02:25:59;15.27;99.99
13496;DHT22;6820;49.374;8.452;2023-05-27T02:30:02;15.28;99.99
13496;DHT22;6820;49.374;8.452;2023-05-27T02:34:05;15.30;99.99
13496;DHT22;6820;49.374;8.452;2023-05-27T02:38:07;15.25;99.99
13496;DHT22;6820;49.374;8.452;2023-05-27T02:42:09;15.15;99.99
13496;DHT22;6820;49.374;8.452;2023-05-27T02:46:10;15.19;99.99
13496;DHT22;6820;49.374;8.452;2023-05-27T02:50:12;15.18;99.99
13496;DHT22;6820;49.374;8.452;2023-05-27T02:54:14;15.18;99.99
13496;DHT22;6820;49.374;8.452;2023-05-27T02:58:16;15.13;99.99
13496;DHT22;6820;49.374;8.452;2023-05-27T03:02:18;15.16;99.99
13496;DHT22;6820;49.374;8.452;2023-05-27T03:06:19;15.13;99.99
13496;DHT22;6820;49.374;8.452;2023-05-27T03:10:21;15.05;99.99
13496;DHT22;6820;49.374;8.452;2023-05-27T03:14:23;14.98;99.99
13496;DHT22;6820;49.374;8.452;2023-05-27T03:18:24;14.91;99.99
13496;DHT22;6820;49.374;8.452;2023-05-27T03:22:26;14.83;99.99
13496;DHT22;6820;49.374;8.452;2023-05-27T03:26:28;14.80;99.99
13496;DHT22;6820;49.374;8.452;2023-05-27T03:30:30;14.78;99.99
13496;DHT22;6820;49.374;8.452;2023-05-27T03:34:32;14.69;99.99
13496;DHT22;6820;49.374;8.452;2023-05-27T03:38:36;14.66;99.99
13496;DHT22;6820;49.374;8.452;2023-05-27T03:42:38;14.71;99.99
13496;DHT22;6820;49.374;8.452;2023-05-27T03:46:40;14.61;99.99
13496;DHT22;6820;49.374;8.452;2023-05-27T03:50:42;14.64;99.99
13496;DHT22;6820;49.374;8.452;2023-05-27T03:54:44;14.64;99.99
13496;DHT22;6820;49.374;8.452;2023-05-27T03:58:47;14.66;99.99
13496;DHT22;6820;49.374;8.452;2023-05-27T04:02:50;14.60;99.99
13496;DHT22;6820;49.374;8.452;2023-05-27T04:06:52;14.49;99.99
13496;DHT22;6820;49.374;8.452;2023-05-27T04:10:54;14.48;99.99
13496;DHT22;6820;49.374;8.452;2023-05-27T04:14:58;14.54;99.99
13496;DHT22;6820;49.374;8.452;2023-05-27T04:19:00;14.53;99.99
13496;DHT22;6820;49.374;8.452;2023-05-27T04:23:02;14.46;99.99
13496;DHT22;6820;49.374;8.452;2023-05-27T04:27:04;14.39;99.99
13496;DHT22;6820;49.374;8.452;2023-05-27T04:31:06;14.39;99.99
13496;DHT22;6820;49.374;8.452;2023-05-27T04:35:18;14.39;99.99
13496;DHT22;6820;49.374;8.452;2023-05-27T04:39:19;14.42;99.99
13496;DHT22;6820;49.374;8.452;2023-05-27T04:43:21;14.36;99.99
13496;DHT22;6820;49.374;8.452;2023-05-27T04:47:24;14.26;99.99
13496;DHT22;6820;49.374;8.452;2023-05-27T04:51:26;14.26;99.99
13496;DHT22;6820;49.374;8.452;2023-05-27T04:55:28;14.24;99.99
13496;DHT22;6820;49.374;8.452;2023-05-27T04:59:29;14.34;99.99
13496;DHT22;6820;49.374;8.452;2023-05-27T05:03:49;14.29;99.99
13496;DHT22;6820;49.374;8.452;2023-05-27T05:08:04;14.30;99.99
13496;DHT22;6820;49.374;8.452;2023-05-27T05:12:06;14.31;99.99
13496;DHT22;6820;49.374;8.452;2023-05-27T05:16:12;14.44;99.99
13496;DHT22;6820;49.374;8.452;2023-05-27T05:20:14;14.49;99.99
13496;DHT22;6820;49.374;8.452;2023-05-27T05:24:16;14.54;99.99
13496;DHT22;6820;49.374;8.452;2023-05-27T05:28:19;14.56;99.99
13496;DHT22;6820;49.374;8.452;2023-05-27T05:32:21;14.60;99.99
13496;DHT22;6820;49.374;8.452;2023-05-27T05:36:23;14.74;99.99
13496;DHT22;6820;49.374;8.452;2023-05-27T05:40:29;14.82;99.99
13496;DHT22;6820;49.374;8.452;2023-05-27T05:44:46;14.95;99.99
13496;DHT22;6820;49.374;8.452;2023-05-27T05:48:51;15.03;99.99
13496;DHT22;6820;49.374;8.452;2023-05-27T05:53:03;15.12;99.99
13496;DHT22;6820;49.374;8.452;2023-05-27T05:57:04;15.16;99.99
13496;DHT22;6820;49.374;8.452;2023-05-27T06:01:07;15.25;99.99
13496;DHT22;6820;49.374;8.452;2023-05-27T06:05:13;15.38;99.99
13496;DHT22;6820;49.374;8.452;2023-05-27T06:09:15;15.46;99.99
13496;DHT22;6820;49.374;8.452;2023-05-27T06:13:17;15.59;99.99
13496;DHT22;6820;49.374;8.452;2023-05-27T06:17:21;15.67;99.99
13496;DHT22;6820;49.374;8.452;2023-05-27T06:21:22;15.77;99.99
13496;DHT22;6820;49.374;8.452;2023-05-27T06:25:45;15.84;99.99
13496;DHT22;6820;49.374;8.452;2023-05-27T06:29:47;15.95;99.99
13496;DHT22;6820;49.374;8.452;2023-05-27T06:33:55;16.11;99.99
13496;DHT22;6820;49.374;8.452;2023-05-27T06:37:57;16.16;99.99
13496;DHT22;6820;49.374;8.452;2023-05-27T06:42:00;16.33;99.99
13496;DHT22;6820;49.374;8.452;2023-05-27T06:46:25;16.47;99.99
13496;DHT22;6820;49.374;8.452;2023-05-27T06:50:35;16.55;99.99
13496;DHT22;6820;49.374;8.452;2023-05-27T06:54:36;16.60;99.99
13496;DHT22;6820;49.374;8.452;2023-05-27T06:59:14;16.67;99.99
13496;DHT22;6820;49.374;8.452;2023-05-27T07:03:15;16.73;99.99
13496;DHT22;6820;49.374;8.452;2023-05-27T07:07:17;16.84;99.99
13496;DHT22;6820;49.374;8.452;2023-05-27T07:11:19;16.96;99.99
13496;DHT22;6820;49.374;8.452;2023-05-27T07:15:22;17.09;99.99
13496;DHT22;6820;49.374;8.452;2023-05-27T07:19:24;17.12;99.99
13496;DHT22;6820;49.374;8.452;2023-05-27T07:23:31;17.17;99.99
13496;DHT22;6820;49.374;8.452;2023-05-27T07:27:52;17.20;99.99
13496;DHT22;6820;49.374;8.452;2023-05-27T07:31:55;17.28;99.99
13496;DHT22;6820;49.374;8.452;2023-05-27T07:36:02;17.40;99.99
13496;DHT22;6820;49.374;8.452;2023-05-27T07:40:04;17.58;99.99
13496;DHT22;6820;49.374;8.452;2023-05-27T07:44:11;17.73;99.99
13496;DHT22;6820;49.374;8.452;2023-05-27T07:48:13;17.86;99.99
13496;DHT22;6820;49.374;8.452;2023-05-27T07:52:15;17.99;99.99
13496;DHT22;6820;49.374;8.452;2023-05-27T07:56:17;18.14;99.99
13496;DHT22;6820;49.374;8.452;2023-05-27T08:00:18;18.35;99.99
13496;DHT22;6820;49.374;8.452;2023-05-27T08:04:26;18.56;99.99
13496;DHT22;6820;49.374;8.452;2023-05-27T08:08:58;18.78;99.99
13496;DHT22;6820;49.374;8.452;2023-05-27T08:13:18;18.93;99.99
13496;DHT22;6820;49.374;8.452;2023-05-27T08:17:33;19.06;99.99
13496;DHT22;6820;49.374;8.452;2023-05-27T08:22:04;19.20;99.99
13496;DHT22;6820;49.374;8.452;2023-05-27T08:26:38;19.38;99.99
13496;DHT22;6820;49.374;8.452;2023-05-27T08:30:51;19.55;99.99
13496;DHT22;6820;49.374;8.452;2023-05-27T08:34:56;19.71;99.99
13496;DHT22;6820;49.374;8.452;2023-05-27T08:38:59;19.89;99.99
13496;DHT22;6820;49.374;8.452;2023-05-27T08:43:06;20.07;99.99
13496;DHT22;6820;49.374;8.452;2023-05-27T08:47:13;20.20;99.99
13496;DHT22;6820;49.374;8.452;2023-05-27T08:51:16;20.27;99.99
13496;DHT22;6820;49.374;8.452;2023-05-27T08:55:20;20.38;99.99
13496;DHT22;6820;49.374;8.452;2023-05-27T08:59:25;20.58;99.99
13496;DHT22;6820;49.374;8.452;2023-05-27T09:03:27;20.71;99.99
13496;DHT22;6820;49.374;8.452;2023-05-27T09:07:31;20.76;99.99
13496;DHT22;6820;49.374;8.452;2023-05-27T09:11:32;20.85;99.13
13496;DHT22;6820;49.374;8.452;2023-05-27T09:15:37;20.91;98.28
13496;DHT22;6820;49.374;8.452;2023-05-27T09:19:40;21.00;98.78
13496;DHT22;6820;49.374;8.452;2023-05-27T09:23:41;21.01;98.18
13496;DHT22;6820;49.374;8.452;2023-05-27T09:27:43;21.11;98.48
13496;DHT22;6820;49.374;8.452;2023-05-27T09:31:46;21.24;98.73
13496;DHT22;6820;49.374;8.452;2023-05-27T09:35:47;21.33;98.43
13496;DHT22;6820;49.374;8.452;2023-05-27T09:39:51;21.46;98.99
13496;DHT22;6820;49.374;8.452;2023-05-27T09:43:54;21.61;98.28
13496;DHT22;6820;49.374;8.452;2023-05-27T09:47:56;21.71;98.03
13496;DHT22;6820;49.374;8.452;2023-05-27T09:52:00;21.75;97.74
13496;DHT22;6820;49.374;8.452;2023-05-27T09:56:04;21.82;96.69
13496;DHT22;6820;49.374;8.452;2023-05-27T10:00:06;21.96;97.39
13496;DHT22;6820;49.374;8.452;2023-05-27T10:04:19;22.20;97.59
13496;DHT22;6820;49.374;8.452;2023-05-27T10:08:22;22.31;96.34
13496;DHT22;6820;49.374;8.452;2023-05-27T10:12:27;22.44;97.89
13496;DHT22;6820;49.374;8.452;2023-05-27T10:16:30;22.59;97.60
13496;DHT22;6820;49.374;8.452;2023-05-27T10:20:32;22.67;95.86
13496;DHT22;6820;49.374;8.452;2023-05-27T10:24:36;22.70;95.36
13496;DHT22;6820;49.374;8.452;2023-05-27T10:28:41;22.72;96.31
13496;DHT22;6820;49.374;8.452;2023-05-27T10:32:43;22.85;96.11
13496;DHT22;6820;49.374;8.452;2023-05-27T10:36:58;23.01;95.61
13496;DHT22;6820;49.374;8.452;2023-05-27T10:41:01;23.14;95.96
13496;DHT22;6820;49.374;8.452;2023-05-27T10:45:06;23.31;95.86
13496;DHT22;6820;49.374;8.452;2023-05-27T10:49:11;23.45;95.21
13496;DHT22;6820;49.374;8.452;2023-05-27T10:53:16;23.56;94.78
13496;DHT22;6820;49.374;8.452;2023-05-27T10:57:19;23.56;95.07
13496;DHT22;6820;49.374;8.452;2023-05-27T11:01:23;23.84;95.57
13496;DHT22;6820;49.374;8.452;2023-05-27T11:05:32;24.04;94.23
13496;DHT22;6820;49.374;8.452;2023-05-27T11:09:50;24.05;94.28
13496;DHT22;6820;49.374;8.452;2023-05-27T11:13:54;24.15;94.78
13496;DHT22;6820;49.374;8.452;2023-05-27T11:18:03;24.33;95.03
13496;DHT22;6820;49.374;8.452;2023-05-27T11:22:06;24.56;95.14
13496;DHT22;6820;49.374;8.452;2023-05-27T11:30:17;24.70;92.85
13496;DHT22;6820;49.374;8.452;2023-05-27T11:34:25;24.71;92.85
13496;DHT22;6820;49.374;8.452;2023-05-27T11:38:29;24.74;92.36
13496;DHT22;6820;49.374;8.452;2023-05-27T11:42:30;24.70;92.26
13496;DHT22;6820;49.374;8.452;2023-05-27T11:50:37;25.20;92.32
13496;DHT22;6820;49.374;8.452;2023-05-27T11:54:39;25.31;91.18
13496;DHT22;6820;49.374;8.452;2023-05-27T11:58:50;25.48;91.03
13496;DHT22;6820;49.374;8.452;2023-05-27T12:02:52;25.69;91.13
13496;DHT22;6820;49.374;8.452;2023-05-27T12:06:53;25.89;90.20
13496;DHT22;6820;49.374;8.452;2023-05-27T12:10:56;26.03;90.85
13496;DHT22;6820;49.374;8.452;2023-05-27T12:14:58;25.93;88.72
13496;DHT22;6820;49.374;8.452;2023-05-27T12:19:00;26.01;88.57
13496;DHT22;6820;49.374;8.452;2023-05-27T12:23:01;26.20;88.82
13496;DHT22;6820;49.374;8.452;2023-05-27T12:27:03;26.41;88.62
13496;DHT22;6820;49.374;8.452;2023-05-27T12:31:05;26.49;87.19
13496;DHT22;6820;49.374;8.452;2023-05-27T12:35:07;26.66;86.10
13496;DHT22;6820;49.374;8.452;2023-05-27T12:39:09;26.72;85.47
13496;DHT22;6820;49.374;8.452;2023-05-27T12:43:11;26.94;85.66
13496;DHT22;6820;49.374;8.452;2023-05-27T12:47:12;27.06;84.83
13496;DHT22;6820;49.374;8.452;2023-05-27T12:51:14;27.06;83.21
13496;DHT22;6820;49.374;8.452;2023-05-27T12:55:17;27.25;84.50
13496;DHT22;6820;49.374;8.452;2023-05-27T12:59:19;27.39;82.78
13496;DHT22;6820;49.374;8.452;2023-05-27T13:03:21;27.68;83.37
13496;DHT22;6820;49.374;8.452;2023-05-27T13:07:23;27.90;83.23
13496;DHT22;6820;49.374;8.452;2023-05-27T13:11:25;28.18;82.59
13496;DHT22;6820;49.374;8.452;2023-05-27T13:15:28;28.11;82.95
13496;DHT22;6820;49.374;8.452;2023-05-27T13:19:30;28.14;81.67
13496;DHT22;6820;49.374;8.452;2023-05-27T13:23:31;28.08;79.59
13496;DHT22;6820;49.374;8.452;2023-05-27T13:27:33;28.33;79.89
13496;DHT22;6820;49.374;8.452;2023-05-27T13:31:35;28.50;79.06
13496;DHT22;6820;49.374;8.452;2023-05-27T13:35:36;28.55;77.44
13496;DHT22;6820;49.374;8.452;2023-05-27T13:39:38;28.83;78.43
13496;DHT22;6820;49.374;8.452;2023-05-27T13:43:44;29.21;78.59
13496;DHT22;6820;49.374;8.452;2023-05-27T13:47:46;29.33;78.81
13496;DHT22;6820;49.374;8.452;2023-05-27T13:51:47;29.12;76.64
13496;DHT22;6820;49.374;8.452;2023-05-27T13:55:49;28.72;75.59
13496;DHT22;6820;49.374;8.452;2023-05-27T13:59:52;28.62;75.63
13496;DHT22;6820;49.374;8.452;2023-05-27T14:03:53;29.02;75.96
13496;DHT22;6820;49.374;8.452;2023-05-27T14:07:55;29.10;75.00
13496;DHT22;6820;49.374;8.452;2023-05-27T14:11:57;29.10;76.28
13496;DHT22;6820;49.374;8.452;2023-05-27T14:15:59;29.05;75.10
13496;DHT22;6820;49.374;8.452;2023-05-27T14:20:01;28.80;73.43
13496;DHT22;6820;49.374;8.452;2023-05-27T14:24:03;28.91;74.35
13496;DHT22;6820;49.374;8.452;2023-05-27T14:28:05;29.30;74.84
13496;DHT22;6820;49.374;8.452;2023-05-27T14:32:07;29.70;73.79
13496;DHT22;6820;49.374;8.452;2023-05-27T14:36:09;29.88;72.92
13496;DHT22;6820;49.374;8.452;2023-05-27T14:40:11;29.67;70.86
13496;DHT22;6820;49.374;8.452;2023-05-27T14:44:13;29.54;71.25
13496;DHT22;6820;49.374;8.452;2023-05-27T14:48:15;29.70;71.78
13496;DHT22;6820;49.374;8.452;2023-05-27T14:52:16;29.70;72.73
13496;DHT22;6820;49.374;8.452;2023-05-27T14:56:18;29.88;71.15
13496;DHT22;6820;49.374;8.452;2023-05-27T15:00:20;30.03;70.07
13496;DHT22;6820;49.374;8.452;2023-05-27T15:04:22;29.82;71.02
13496;DHT22;6820;49.374;8.452;2023-05-27T15:08:24;29.86;70.66
13496;DHT22;6820;49.374;8.452;2023-05-27T15:12:28;30.16;69.68
13496;DHT22;6820;49.374;8.452;2023-05-27T15:16:41;30.23;70.59
13496;DHT22;6820;49.374;8.452;2023-05-27T15:20:43;30.23;70.30
13496;DHT22;6820;49.374;8.452;2023-05-27T15:24:45;30.03;70.69
13496;DHT22;6820;49.374;8.452;2023-05-27T15:28:46;30.23;70.63
13496;DHT22;6820;49.374;8.452;2023-05-27T15:32:48;30.38;70.10
13496;DHT22;6820;49.374;8.452;2023-05-27T15:36:49;30.34;68.23
13496;DHT22;6820;49.374;8.452;2023-05-27T15:40:51;30.53;68.33
13496;DHT22;6820;49.374;8.452;2023-05-27T15:44:53;30.51;67.61
13496;DHT22;6820;49.374;8.452;2023-05-27T15:48:55;30.63;67.22
13496;DHT22;6820;49.374;8.452;2023-05-27T15:52:56;30.73;67.71
13496;DHT22;6820;49.374;8.452;2023-05-27T15:56:58;30.72;67.68
13496;DHT22;6820;49.374;8.452;2023-05-27T16:01:00;30.36;67.77
13496;DHT22;6820;49.374;8.452;2023-05-27T16:05:01;29.95;67.84
13496;DHT22;6820;49.374;8.452;2023-05-27T16:09:04;29.92;68.17
13496;DHT22;6820;49.374;8.452;2023-05-27T16:13:06;30.06;68.66
13496;DHT22;6820;49.374;8.452;2023-05-27T16:17:08;30.16;67.77
13496;DHT22;6820;49.374;8.452;2023-05-27T16:21:09;30.29;67.25
13496;DHT22;6820;49.374;8.452;2023-05-27T16:25:13;30.29;68.33
13496;DHT22;6820;49.374;8.452;2023-05-27T16:29:14;30.29;67.45
13496;DHT22;6820;49.374;8.452;2023-05-27T16:33:16;30.32;67.74
13496;DHT22;6820;49.374;8.452;2023-05-27T16:37:18;30.13;68.92
13496;DHT22;6820;49.374;8.452;2023-05-27T16:41:19;29.74;69.74
13496;DHT22;6820;49.374;8.452;2023-05-27T16:45:23;29.58;70.27
13496;DHT22;6820;49.374;8.452;2023-05-27T16:49:24;29.60;69.91
13496;DHT22;6820;49.374;8.452;2023-05-27T16:53:27;29.54;68.92
13496;DHT22;6820;49.374;8.452;2023-05-27T16:57:28;29.35;69.51
13496;DHT22;6820;49.374;8.452;2023-05-27T17:01:30;29.23;69.55
13496;DHT22;6820;49.374;8.452;2023-05-27T17:05:31;29.00;70.14
13496;DHT22;6820;49.374;8.452;2023-05-27T17:09:33;28.85;69.19
13496;DHT22;6820;49.374;8.452;2023-05-27T17:13:35;28.50;70.70
13496;DHT22;6820;49.374;8.452;2023-05-27T17:17:37;28.20;72.02
13496;DHT22;6820;49.374;8.452;2023-05-27T17:21:39;27.87;71.98
13496;DHT22;6820;49.374;8.452;2023-05-27T17:25:41;27.71;72.72
13496;DHT22;6820;49.374;8.452;2023-05-27T17:29:43;27.42;73.64
13496;DHT22;6820;49.374;8.452;2023-05-27T17:33:46;27.16;74.37
13496;DHT22;6820;49.374;8.452;2023-05-27T17:37:47;26.87;75.29
13496;DHT22;6820;49.374;8.452;2023-05-27T17:41:49;26.65;75.73
13496;DHT22;6820;49.374;8.452;2023-05-27T17:45:51;26.44;75.86
13496;DHT22;6820;49.374;8.452;2023-05-27T17:49:52;26.31;76.49
13496;DHT22;6820;49.374;8.452;2023-05-27T17:53:54;26.20;77.09
13496;DHT22;6820;49.374;8.452;2023-05-27T17:57:56;26.01;77.62
13496;DHT22;6820;49.374;8.452;2023-05-27T18:01:57;25.93;77.72
13496;DHT22;6820;49.374;8.452;2023-05-27T18:05:59;25.83;78.16
13496;DHT22;6820;49.374;8.452;2023-05-27T18:10:01;25.72;77.56
13496;DHT22;6820;49.374;8.452;2023-05-27T18:14:03;25.54;78.29
13496;DHT22;6820;49.374;8.452;2023-05-27T18:18:06;25.45;78.19
13496;DHT22;6820;49.374;8.452;2023-05-27T18:22:09;25.31;78.92
13496;DHT22;6820;49.374;8.452;2023-05-27T18:26:10;25.20;78.92
13496;DHT22;6820;49.374;8.452;2023-05-27T18:30:12;25.14;79.46
13496;DHT22;6820;49.374;8.452;2023-05-27T18:34:14;25.05;80.05
13496;DHT22;6820;49.374;8.452;2023-05-27T18:38:16;25.01;81.18
13496;DHT22;6820;49.374;8.452;2023-05-27T18:42:18;24.89;81.48
13496;DHT22;6820;49.374;8.452;2023-05-27T18:46:20;24.83;82.18
13496;DHT22;6820;49.374;8.452;2023-05-27T18:50:22;24.74;82.68
13496;DHT22;6820;49.374;8.452;2023-05-27T18:54:32;24.63;83.01
13496;DHT22;6820;49.374;8.452;2023-05-27T18:58:33;24.53;83.81
13496;DHT22;6820;49.374;8.452;2023-05-27T19:02:38;24.42;84.34
13496;DHT22;6820;49.374;8.452;2023-05-27T19:06:40;24.27;84.64
13496;DHT22;6820;49.374;8.452;2023-05-27T19:10:41;24.15;85.08
13496;DHT22;6820;49.374;8.452;2023-05-27T19:14:44;24.04;85.38
13496;DHT22;6820;49.374;8.452;2023-05-27T19:18:46;23.92;86.22
13496;DHT22;6820;49.374;8.452;2023-05-27T19:22:48;23.78;86.61
13496;DHT22;6820;49.374;8.452;2023-05-27T19:26:49;23.67;87.35
13496;DHT22;6820;49.374;8.452;2023-05-27T19:30:51;23.50;87.95
13496;DHT22;6820;49.374;8.452;2023-05-27T19:34:53;23.41;88.89
13496;DHT22;6820;49.374;8.452;2023-05-27T19:38:55;23.34;88.79
13496;DHT22;6820;49.374;8.452;2023-05-27T19:42:56;23.22;88.93
13496;DHT22;6820;49.374;8.452;2023-05-27T19:46:58;23.19;89.83
13496;DHT22;6820;49.374;8.452;2023-05-27T19:51:01;23.11;89.03
13496;DHT22;6820;49.374;8.452;2023-05-27T19:55:02;23.00;89.78
13496;DHT22;6820;49.374;8.452;2023-05-27T19:59:04;22.94;89.87
13496;DHT22;6820;49.374;8.452;2023-05-27T20:03:06;22.81;89.98
13496;DHT22;6820;49.374;8.452;2023-05-27T20:07:08;22.69;89.72
13496;DHT22;6820;49.374;8.452;2023-05-27T20:11:10;22.67;89.62
13496;DHT22;6820;49.374;8.452;2023-05-27T20:15:12;22.61;89.36
13496;DHT22;6820;49.374;8.452;2023-05-27T20:19:15;22.59;89.47
13496;DHT22;6820;49.374;8.452;2023-05-27T20:23:17;22.52;89.47
13496;DHT22;6820;49.374;8.452;2023-05-27T20:27:19;22.46;89.96
13496;DHT22;6820;49.374;8.452;2023-05-27T20:31:21;22.39;89.96
13496;DHT22;6820;49.374;8.452;2023-05-27T20:35:24;22.33;91.00
13496;DHT22;6820;49.374;8.452;2023-05-27T20:39:26;22.31;91.90
13496;DHT22;6820;49.374;8.452;2023-05-27T20:43:27;22.29;92.50
13496;DHT22;6820;49.374;8.452;2023-05-27T20:47:29;22.21;92.60
13496;DHT22;6820;49.374;8.452;2023-05-27T20:51:31;22.11;92.55
13496;DHT22;6820;49.374;8.452;2023-05-27T20:55:34;22.08;93.05
13496;DHT22;6820;49.374;8.452;2023-05-27T20:59:36;22.05;92.44
13496;DHT22;6820;49.374;8.452;2023-05-27T21:03:38;21.96;92.44
13496;DHT22;6820;49.374;8.452;2023-05-27T21:07:40;21.90;92.69
13496;DHT22;6820;49.374;8.452;2023-05-27T21:11:42;21.83;91.99
13496;DHT22;6820;49.374;8.452;2023-05-27T21:15:44;21.79;91.69
13496;DHT22;6820;49.374;8.452;2023-05-27T21:19:46;21.73;91.99
13496;DHT22;6820;49.374;8.452;2023-05-27T21:23:47;21.70;91.53
13496;DHT22;6820;49.374;8.452;2023-05-27T21:27:49;21.64;91.83
13496;DHT22;6820;49.374;8.452;2023-05-27T21:31:51;21.63;92.43
13496;DHT22;6820;49.374;8.452;2023-05-27T21:35:52;21.53;92.63
13496;DHT22;6820;49.374;8.452;2023-05-27T21:39:54;21.38;93.04
13496;DHT22;6820;49.374;8.452;2023-05-27T21:43:56;21.30;93.38
13496;DHT22;6820;49.374;8.452;2023-05-27T21:48:01;21.24;93.48
13496;DHT22;6820;49.374;8.452;2023-05-27T21:52:05;21.09;93.62
13496;DHT22;6820;49.374;8.452;2023-05-27T21:56:07;20.98;93.82
13496;DHT22;6820;49.374;8.452;2023-05-27T22:00:10;20.94;93.77
13496;DHT22;6820;49.374;8.452;2023-05-27T22:04:17;20.82;94.37
13496;DHT22;6820;49.374;8.452;2023-05-27T22:08:19;20.75;94.97
13496;DHT22;6820;49.374;8.452;2023-05-27T22:12:20;20.72;95.32
13496;DHT22;6820;49.374;8.452;2023-05-27T22:16:22;20.66;95.92
13496;DHT22;6820;49.374;8.452;2023-05-27T22:20:24;20.60;95.72
13496;DHT22;6820;49.374;8.452;2023-05-27T22:24:26;20.50;95.92
13496;DHT22;6820;49.374;8.452;2023-05-27T22:28:27;20.46;96.17
13496;DHT22;6820;49.374;8.452;2023-05-27T22:32:29;20.25;96.87
13496;DHT22;6820;49.374;8.452;2023-05-27T22:36:31;20.37;98.32
13496;DHT22;6820;49.374;8.452;2023-05-27T22:40:32;20.20;99.87
13496;DHT22;6820;49.374;8.452;2023-05-27T22:44:34;20.12;99.99
13496;DHT22;6820;49.374;8.452;2023-05-27T22:48:36;19.98;99.99
13496;DHT22;6820;49.374;8.452;2023-05-27T22:52:37;19.92;99.99
13496;DHT22;6820;49.374;8.452;2023-05-27T22:56:39;19.89;99.77
13496;DHT22;6820;49.374;8.452;2023-05-27T23:00:42;19.79;99.47
13496;DHT22;6820;49.374;8.452;2023-05-27T23:04:44;19.78;99.99
13496;DHT22;6820;49.374;8.452;2023-05-27T23:08:45;19.72;99.99
13496;DHT22;6820;49.374;8.452;2023-05-27T23:12:47;19.62;99.99
13496;DHT22;6820;49.374;8.452;2023-05-27T23:16:49;19.52;99.99
13496;DHT22;6820;49.374;8.452;2023-05-27T23:20:53;19.30;99.99
13496;DHT22;6820;49.374;8.452;2023-05-27T23:24:55;19.23;99.99
13496;DHT22;6820;49.374;8.452;2023-05-27T23:28:56;19.21;99.99
13496;DHT22;6820;49.374;8.452;2023-05-27T23:32:58;19.01;99.99
13496;DHT22;6820;49.374;8.452;2023-05-27T23:37:00;18.90;99.99
13496;DHT22;6820;49.374;8.452;2023-05-27T23:41:01;18.76;99.99
13496;DHT22;6820;49.374;8.452;2023-05-27T23:45:03;18.68;99.99
13496;DHT22;6820;49.374;8.452;2023-05-27T23:49:05;18.54;99.99
13496;DHT22;6820;49.374;8.452;2023-05-27T23:53:06;18.49;99.99
13496;DHT22;6820;49.374;8.452;2023-05-27T23:57:08;18.38;99.99
